Flight Track Log - Related Links

Times and Time Zones

All times are in EDT time to prevent confusion due to time zone crossing. See the BJS439 flight status page for this flight to view local times or setup timezone preferences in your user account.

Time Position Orientation Groundspeed Altitude Reporting Facility
EDT Latitude Longitude Course Direction KTS MPH feet Rate Location/Type
Tue 08:03:57 AM 39.0500 -77.5500 311° West 162 186 1,800  Level Potomac TRACON
Tue 08:04:57 AM 39.0833 -77.6000 311° West 220 253 2,700 850 Climbing Potomac TRACON
Tue 08:05:57 AM 39.1167 -77.6500 311° West 217 250 3,500 650 Climbing Potomac TRACON
Tue 08:06:57 AM 39.0667 -77.6667 195° South 190 219 4,000 762 Climbing Potomac TRACON
Tue 08:08:03 AM 39.0000 -77.6833 191° South 183 211 5,100 1,200 Climbing Potomac TRACON
Tue 08:08:57 AM 38.9667 -77.6500 142° Southeast 220 253 6,400 1,000 Climbing Potomac TRACON
Tue 08:09:57 AM 38.9167 -77.5833 134° Southeast 251 289 7,000 11,438 Climbing Potomac TRACON
Tue 08:12:09 AM 38.7872 -77.5386 165° South 241 277 43,000 1,125 Climbing Washington Center
Tue 08:13:09 AM 38.6911 -77.5439 182° South 272 313 10,600 -8,233 Descending Washington Center
Tue 08:15:09 AM 38.5183 -77.6536 206° Southwest 356 410 18,300 4,000 Climbing Washington Center
Tue 08:16:09 AM 38.4483 -77.7258 219° Southwest 370 426 22,600 3,850 Climbing Washington Center
Tue 08:17:09 AM 38.3592 -77.8133 218° Southwest 370 426 26,000 2,200 Climbing Washington Center
Tue 08:18:09 AM 38.2825 -77.8903 218° Southwest 385 443 27,000 1,750 Climbing Washington Center
Tue 08:19:09 AM 38.1783 -77.9928 218° Southwest 418 481 29,500 2,250 Climbing Washington Center
Tue 08:20:09 AM 38.0933 -78.0719 216° Southwest 431 496 31,500 1,750 Climbing Washington Center
Tue 08:21:09 AM 37.9956 -78.1689 218° Southwest 436 502 33,000 2,000 Climbing Washington Center
Tue 08:22:09 AM 37.8950 -78.2733 219° Southwest 436 502 35,500 2,200 Climbing Washington Center
Tue 08:23:09 AM 37.7992 -78.3619 216° Southwest 436 502 37,400 1,900 Climbing Washington Center
Tue 08:24:09 AM 37.7097 -78.4478 217° Southwest 425 489 39,300 1,650 Climbing Washington Center
Tue 08:25:09 AM 37.6200 -78.5308 216° Southwest 419 482 40,700 1,150 Climbing Washington Center
Tue 08:26:09 AM 37.5389 -78.6039 216° Southwest 407 468 41,600 850 Climbing Washington Center
Tue 08:27:09 AM 37.4514 -78.6867 217° Southwest 407 468 42,400 700 Climbing Washington Center
Tue 08:28:09 AM 37.3594 -78.7692 216° Southwest 407 468 43,000 300 Climbing Washington Center
Tue 08:29:09 AM 37.2653 -78.8567 216° Southwest 417 480 43,000  Level Washington Center
Tue 08:30:09 AM 37.1689 -78.9464 217° Southwest 427 491 43,000  Level Washington Center
Tue 08:31:09 AM 37.0725 -79.0383 217° Southwest 439 505 43,000  Level Washington Center
Tue 08:32:09 AM 36.9631 -79.1375 216° Southwest 439 505 43,000  Level Washington Center
Tue 08:33:09 AM 36.8667 -79.2267 217° Southwest 439 505 43,000  Level Washington Center
Tue 08:34:09 AM 36.7700 -79.3181 217° Southwest 439 505 43,000  Level Washington Center
Tue 08:35:09 AM 36.6733 -79.4064 216° Southwest 439 505 43,000  Level Washington Center
Tue 08:37:17 AM 36.4658 -79.5908 216° Southwest 443 510 43,000  Level Atlanta Center
Tue 08:38:17 AM 36.3689 -79.6786 216° Southwest 438 504 43,000  Level Atlanta Center
Tue 08:39:17 AM 36.2719 -79.7689 217° Southwest 438 504 43,000  Level Atlanta Center
Tue 08:40:17 AM 36.1847 -79.8456 215° Southwest 438 504 43,000  Level Atlanta Center
Tue 08:41:17 AM 36.0897 -79.9328 217° Southwest 438 504 43,000  Level Atlanta Center
Tue 08:42:17 AM 35.9817 -80.0075 209° Southwest 438 504 43,000  Level Atlanta Center
Tue 08:43:17 AM 35.8667 -80.0644 202° Southwest 438 504 43,000  Level Atlanta Center
Tue 08:44:17 AM 35.7394 -80.1294 203° Southwest 449 517 43,000  Level Atlanta Center
Tue 08:45:17 AM 35.6264 -80.1861 202° Southwest 449 517 43,000  Level Atlanta Center
Tue 08:46:17 AM 35.5114 -80.2450 203° Southwest 449 517 43,000  Level Atlanta Center
Tue 08:47:17 AM 35.3986 -80.3011 202° Southwest 454 522 43,000  Level Atlanta Center
Tue 08:48:17 AM 35.2792 -80.3600 202° Southwest 446 513 43,000  Level Atlanta Center
Tue 08:50:31 AM 35.0233 -80.4844 202° Southwest 437 503 43,000  Level Jacksonville Center
Tue 08:51:31 AM 34.9117 -80.5408 202° Southwest 447 514 43,000  Level Jacksonville Center
Tue 08:52:31 AM 34.8186 -80.5839 201° Southwest 442 509 43,000 -50 Level Jacksonville Center
Tue 08:53:31 AM 34.7011 -80.6500 205° Southwest 437 503 42,900  Descending Jacksonville Center
Tue 08:54:31 AM 34.5686 -80.7142 202° Southwest 453 521 43,000 50 Climbing Jacksonville Center
Tue 08:55:31 AM 34.4694 -80.7619 202° Southwest 448 516 43,000  Level Jacksonville Center
Tue 08:56:31 AM 34.3536 -80.8175 202° Southwest 448 516 43,000 -50 Level Jacksonville Center
Tue 08:57:31 AM 34.2356 -80.8756 202° Southwest 432 497 42,900 -50 Descending Jacksonville Center
Tue 08:58:31 AM 34.1217 -80.9308 202° Southwest 432 497 42,900  Level Jacksonville Center
Tue 08:59:31 AM 34.0097 -80.9836 201° Southwest 432 497 42,900 50 Level Jacksonville Center
Tue 09:00:31 AM 33.9083 -81.0308 201° Southwest 432 497 43,000 50 Climbing Jacksonville Center
Tue 09:01:31 AM 33.7878 -81.0633 193° South 432 497 43,000 -50 Level Jacksonville Center
Tue 09:02:31 AM 33.6458 -81.0739 184° South 452 520 42,900 -50 Descending Jacksonville Center
Tue 09:03:31 AM 33.5208 -81.0864 185° South 457 526 42,900  Level Jacksonville Center
Tue 09:04:31 AM 33.3958 -81.0964 184° South 457 526 42,900  Level Jacksonville Center
Tue 09:05:31 AM 33.2708 -81.1089 185° South 462 532 42,900  Level Jacksonville Center
Tue 09:06:31 AM 33.1414 -81.1189 184° South 462 532 42,900  Level Jacksonville Center
Tue 09:07:31 AM 33.0142 -81.1239 182° South 462 532 42,900  Level Jacksonville Center
Tue 09:08:31 AM 32.8847 -81.1214 179° South 462 532 42,900  Level Jacksonville Center
Tue 09:09:31 AM 32.7575 -81.1214 180° South 457 526 42,900 50 Level Jacksonville Center
Tue 09:10:31 AM 32.6469 -81.1211 180° South 451 519 43,000 50 Climbing Jacksonville Center
Tue 09:11:31 AM 32.5050 -81.1214 180° South 451 519 43,000 -50 Level Jacksonville Center
Tue 09:12:31 AM 32.3733 -81.1167 178° South 474 545 42,900 -50 Descending Jacksonville Center
Tue 09:13:31 AM 32.2458 -81.1192 181° South 469 540 42,900  Level Jacksonville Center
Tue 09:14:31 AM 32.1167 -81.1192 180° South 460 529 42,900  Level Jacksonville Center
Tue 09:15:31 AM 31.9869 -81.1167 179° South 460 529 42,900 50 Level Jacksonville Center
Tue 09:16:31 AM 31.8764 -81.1139 179° South 460 529 43,000 50 Climbing Jacksonville Center
Tue 09:17:31 AM 31.7367 -81.1167 181° South 460 529 43,000  Level Jacksonville Center
Tue 09:18:31 AM 31.6197 -81.1164 180° South 460 529 43,000  Level Jacksonville Center
Tue 09:19:31 AM 31.4775 -81.1142 179° South 460 529 43,000  Level Jacksonville Center
Tue 09:20:31 AM 31.3503 -81.1142 180° South 455 524 43,000 -50 Level Jacksonville Center
Tue 09:21:31 AM 31.2208 -81.1167 181° South 469 540 42,900 -50 Descending Jacksonville Center
Tue 09:22:31 AM 31.0914 -81.1192 181° South 463 533 42,900  Level Jacksonville Center
Tue 09:23:31 AM 30.9594 -81.0950 171° South 468 539 42,900  Level Jacksonville Center
Tue 09:24:31 AM 30.8297 -81.0683 170° South 474 545 42,900  Level Jacksonville Center
Tue 09:25:31 AM 30.7019 -81.0419 170° South 474 545 42,900  Level Jacksonville Center
Tue 09:26:31 AM 30.5722 -81.0178 171° South 474 545 42,900  Level Jacksonville Center
Tue 09:27:31 AM 30.4425 -80.9939 171° South 474 545 42,900  Level Jacksonville Center
Tue 09:28:31 AM 30.3125 -80.9700 171° South 479 551 42,900  Level Jacksonville Center
Tue 09:29:31 AM 30.1806 -80.9461 171° South 479 551 42,900  Level Jacksonville Center
Tue 09:30:31 AM 30.0508 -80.9225 171° South 479 551 42,900  Level Jacksonville Center
Tue 09:31:31 AM 29.9169 -80.8989 171° South 485 558 42,900  Level Jacksonville Center
Tue 09:32:31 AM 29.7872 -80.8775 172° South 485 558 42,900  Level Jacksonville Center
Tue 09:33:31 AM 29.6594 -80.8539 171° South 485 558 42,900  Level Jacksonville Center
Tue 09:34:31 AM 29.5275 -80.8306 171° South 485 558 42,900 -800 Level Jacksonville Center
Tue 09:35:31 AM 29.4019 -80.8044 170° South 485 558 41,300 -1,813 Descending Jacksonville Center
Tue 09:36:07 AM 29.3211 -80.7925 173° South 480 552 40,000 -2,375 Descending Miami Center
Tue 09:37:07 AM 29.1903 -80.7689 171° South 480 552 37,500 -2,000 Descending Miami Center
Tue 09:38:07 AM 29.0625 -80.7192 161° South 485 558 36,000 -750 Descending Miami Center
Tue 09:39:07 AM 28.9328 -80.6556 157° South 493 567 36,000 -250 Level Miami Center
Tue 09:40:07 AM 28.8092 -80.5967 157° South 498 573 35,500 -1,450 Descending Miami Center
Tue 09:41:07 AM 28.6792 -80.5356 158° South 498 573 33,100 -2,400 Descending Miami Center
Tue 09:42:07 AM 28.5556 -80.4772 157° South 498 573 30,700 -2,450 Descending Miami Center
Tue 09:43:07 AM 28.4400 -80.4239 158° South 493 567 28,200 -2,450 Descending Miami Center
Tue 09:44:07 AM 28.3142 -80.3658 158° South 493 567 25,800 -2,200 Descending Miami Center
Tue 09:45:07 AM 28.1758 -80.3000 157° South 493 567 23,800 -2,150 Descending Miami Center
Tue 09:46:07 AM 28.0650 -80.2214 148° Southeast 477 549 21,500 -2,350 Descending Miami Center
Tue 09:47:07 AM 27.9469 -80.1850 165° South 441 507 19,100 -2,250 Descending Miami Center
Tue 09:48:07 AM 27.8406 -80.1797 177° South 436 502 17,000 -2,000 Descending Miami Center
Tue 09:49:07 AM 27.7239 -80.1717 177° South 423 487 15,100 -2,100 Descending Miami Center
Tue 09:50:07 AM 27.5989 -80.1586 175° South 417 480 12,800 -1,900 Descending Miami Center
Tue 09:51:07 AM 27.4925 -80.1508 176° South 398 458 11,300 -1,300 Descending Miami Center
Tue 09:52:07 AM 27.3989 -80.1458 177° South 368 423 10,200 -650 Descending Miami Center
Tue 09:53:07 AM 27.3239 -80.1389 175° South 314 361 10,000 -750 Descending Miami Center
Tue 09:54:07 AM 27.2425 -80.1297 174° South 294 338 8,700 -1,950 Descending Miami Center
Tue 09:55:07 AM 27.1589 -80.1367 184° South 282 325 6,100 -2,200 Descending Miami Center
Tue 09:56:07 AM 27.0853 -80.1603 196° South 282 325 4,300 -1,050 Descending Miami Center
Tue 09:57:07 AM 27.0136 -80.1839 196° South 282 325 4,000 -100 Descending Miami Center
Tue 09:58:07 AM 26.9497 -80.1542 157° South 266 306 4,100  Climbing Miami Center
Tue 09:59:07 AM 26.8719 -80.1753 194° South 272 313 4,000 -250 Descending Miami Center
Tue 10:00:07 AM 26.7958 -80.2103 202° Southwest 277 319 3,600 -400 Descending Miami Center
Tue 10:02:00 AM 26.6832 -80.0956 110° East  Level Estimated
Tue 10:09:00 AM 26.6832 -80.0956 110° East  Level Estimated
Tue 10:10:00 AM 26.6832 -80.0956 110° East  Level Estimated
Tue 10:11:00 AM 26.6832 -80.0956 110° East  Level Estimated
Tue 10:12:00 AM 26.6832 -80.0956 110° East  Level Estimated
Tue 10:13:00 AM 26.6832 -80.0956 110° East  Level Estimated

Login

Don't have an account? Register now (free) for customized features, flight alerts, and more!